sensor_id;sensor_type;location;lat;lon;timestamp;P1;durP1;ratioP1;P2;durP2;ratioP2
33738;SDS011;20063;51.730;11.110;2022-08-02T00:00:05;10.82;;;3.38;;
33738;SDS011;20063;51.730;11.110;2022-08-02T00:02:32;8.98;;;3.35;;
33738;SDS011;20063;51.730;11.110;2022-08-02T00:04:57;13.85;;;3.60;;
33738;SDS011;20063;51.730;11.110;2022-08-02T00:07:26;10.95;;;3.17;;
33738;SDS011;20063;51.730;11.110;2022-08-02T00:09:52;8.65;;;3.28;;
33738;SDS011;20063;51.730;11.110;2022-08-02T00:12:32;10.90;;;3.53;;
33738;SDS011;20063;51.730;11.110;2022-08-02T00:14:57;7.70;;;3.00;;
33738;SDS011;20063;51.730;11.110;2022-08-02T00:17:23;7.55;;;3.28;;
33738;SDS011;20063;51.730;11.110;2022-08-02T00:22:29;8.15;;;3.28;;
33738;SDS011;20063;51.730;11.110;2022-08-02T00:27:39;5.43;;;3.10;;
33738;SDS011;20063;51.730;11.110;2022-08-02T00:30:11;5.00;;;2.45;;
33738;SDS011;20063;51.730;11.110;2022-08-02T00:32:36;9.27;;;3.22;;
33738;SDS011;20063;51.730;11.110;2022-08-02T00:35:05;6.30;;;2.80;;
33738;SDS011;20063;51.730;11.110;2022-08-02T00:37:31;7.95;;;3.00;;
33738;SDS011;20063;51.730;11.110;2022-08-02T00:40:03;13.52;;;4.30;;
33738;SDS011;20063;51.730;11.110;2022-08-02T00:42:29;7.22;;;3.10;;
33738;SDS011;20063;51.730;11.110;2022-08-02T00:44:56;8.23;;;3.45;;
33738;SDS011;20063;51.730;11.110;2022-08-02T00:47:22;4.88;;;2.97;;
33738;SDS011;20063;51.730;11.110;2022-08-02T00:49:50;6.47;;;3.15;;
33738;SDS011;20063;51.730;11.110;2022-08-02T00:52:18;8.82;;;3.10;;
33738;SDS011;20063;51.730;11.110;2022-08-02T00:54:45;12.38;;;3.08;;
33738;SDS011;20063;51.730;11.110;2022-08-02T00:57:10;12.23;;;3.88;;
33738;SDS011;20063;51.730;11.110;2022-08-02T00:59:50;5.10;;;2.67;;
33738;SDS011;20063;51.730;11.110;2022-08-02T01:02:16;10.88;;;3.75;;
33738;SDS011;20063;51.730;11.110;2022-08-02T01:07:27;11.60;;;3.05;;
33738;SDS011;20063;51.730;11.110;2022-08-02T01:12:43;11.80;;;3.58;;
33738;SDS011;20063;51.730;11.110;2022-08-02T01:15:09;10.20;;;2.92;;
33738;SDS011;20063;51.730;11.110;2022-08-02T01:23:52;3.65;;;2.13;;
33738;SDS011;20063;51.730;11.110;2022-08-02T01:26:36;8.27;;;3.03;;
33738;SDS011;20063;51.730;11.110;2022-08-02T01:29:33;11.20;;;2.85;;
33738;SDS011;20063;51.730;11.110;2022-08-02T01:32:20;8.20;;;3.22;;
33738;SDS011;20063;51.730;11.110;2022-08-02T01:35:00;8.77;;;3.00;;
33738;SDS011;20063;51.730;11.110;2022-08-02T01:37:57;3.30;;;2.22;;
33738;SDS011;20063;51.730;11.110;2022-08-02T01:40:52;9.80;;;2.25;;
33738;SDS011;20063;51.730;11.110;2022-08-02T01:43:30;6.93;;;2.33;;
33738;SDS011;20063;51.730;11.110;2022-08-02T01:45:57;4.95;;;2.40;;
33738;SDS011;20063;51.730;11.110;2022-08-02T01:48:42;3.88;;;2.08;;
33738;SDS011;20063;51.730;11.110;2022-08-02T01:51:12;4.20;;;1.92;;
33738;SDS011;20063;51.730;11.110;2022-08-02T01:53:42;4.72;;;2.85;;
33738;SDS011;20063;51.730;11.110;2022-08-02T01:56:12;2.22;;;2.00;;
33738;SDS011;20063;51.730;11.110;2022-08-02T02:04:52;8.27;;;2.40;;
33738;SDS011;20063;51.730;11.110;2022-08-02T02:07:35;6.78;;;2.00;;
33738;SDS011;20063;51.730;11.110;2022-08-02T02:10:02;6.60;;;2.75;;
33738;SDS011;20063;51.730;11.110;2022-08-02T02:16:04;10.98;;;3.38;;
33738;SDS011;20063;51.730;11.110;2022-08-02T02:21:40;6.60;;;2.83;;
33738;SDS011;20063;51.730;11.110;2022-08-02T02:24:07;7.93;;;2.40;;
33738;SDS011;20063;51.730;11.110;2022-08-02T02:26:33;3.88;;;2.20;;
33738;SDS011;20063;51.730;11.110;2022-08-02T02:32:07;9.63;;;3.10;;
33738;SDS011;20063;51.730;11.110;2022-08-02T02:34:36;6.38;;;2.50;;
33738;SDS011;20063;51.730;11.110;2022-08-02T02:37:05;6.50;;;2.25;;
33738;SDS011;20063;51.730;11.110;2022-08-02T02:42:58;3.72;;;2.00;;
33738;SDS011;20063;51.730;11.110;2022-08-02T02:45:43;8.18;;;2.47;;
33738;SDS011;20063;51.730;11.110;2022-08-02T02:48:10;8.82;;;2.83;;
33738;SDS011;20063;51.730;11.110;2022-08-02T02:50:50;9.30;;;2.55;;
33738;SDS011;20063;51.730;11.110;2022-08-02T02:53:17;5.28;;;2.28;;
33738;SDS011;20063;51.730;11.110;2022-08-02T02:55:50;7.18;;;2.75;;
33738;SDS011;20063;51.730;11.110;2022-08-02T02:58:17;6.68;;;2.97;;
33738;SDS011;20063;51.730;11.110;2022-08-02T03:00:42;6.38;;;2.15;;
33738;SDS011;20063;51.730;11.110;2022-08-02T03:03:28;8.07;;;3.05;;
33738;SDS011;20063;51.730;11.110;2022-08-02T03:05:54;7.25;;;3.00;;
33738;SDS011;20063;51.730;11.110;2022-08-02T03:08:30;4.85;;;2.42;;
33738;SDS011;20063;51.730;11.110;2022-08-02T03:10:56;5.82;;;2.15;;
33738;SDS011;20063;51.730;11.110;2022-08-02T03:21:08;10.55;;;3.13;;
33738;SDS011;20063;51.730;11.110;2022-08-02T03:23:36;11.55;;;2.30;;
33738;SDS011;20063;51.730;11.110;2022-08-02T03:26:20;6.20;;;2.60;;
33738;SDS011;20063;51.730;11.110;2022-08-02T03:28:45;11.23;;;2.85;;
33738;SDS011;20063;51.730;11.110;2022-08-02T03:31:11;9.80;;;2.88;;
33738;SDS011;20063;51.730;11.110;2022-08-02T03:33:45;7.25;;;2.80;;
33738;SDS011;20063;51.730;11.110;2022-08-02T03:36:11;7.80;;;2.83;;
33738;SDS011;20063;51.730;11.110;2022-08-02T03:38:40;7.07;;;2.13;;
33738;SDS011;20063;51.730;11.110;2022-08-02T03:41:09;6.93;;;2.58;;
33738;SDS011;20063;51.730;11.110;2022-08-02T03:43:37;12.02;;;2.80;;
33738;SDS011;20063;51.730;11.110;2022-08-02T03:46:04;9.18;;;2.85;;
33738;SDS011;20063;51.730;11.110;2022-08-02T03:51:40;4.47;;;2.42;;
33738;SDS011;20063;51.730;11.110;2022-08-02T03:57:26;2.58;;;2.05;;
33738;SDS011;20063;51.730;11.110;2022-08-02T03:59:51;8.65;;;2.20;;
33738;SDS011;20063;51.730;11.110;2022-08-02T04:02:17;3.60;;;2.17;;
33738;SDS011;20063;51.730;11.110;2022-08-02T04:04:48;3.50;;;1.90;;
33738;SDS011;20063;51.730;11.110;2022-08-02T04:07:14;7.75;;;2.45;;
33738;SDS011;20063;51.730;11.110;2022-08-02T04:09:39;8.00;;;2.30;;
33738;SDS011;20063;51.730;11.110;2022-08-02T04:12:06;3.75;;;2.20;;
33738;SDS011;20063;51.730;11.110;2022-08-02T04:14:49;5.43;;;2.60;;
33738;SDS011;20063;51.730;11.110;2022-08-02T04:17:15;5.70;;;2.15;;
33738;SDS011;20063;51.730;11.110;2022-08-02T04:19:50;4.22;;;2.55;;
33738;SDS011;20063;51.730;11.110;2022-08-02T04:22:30;5.22;;;2.38;;
33738;SDS011;20063;51.730;11.110;2022-08-02T04:25:25;10.98;;;2.60;;
33738;SDS011;20063;51.730;11.110;2022-08-02T04:27:51;7.80;;;2.42;;
33738;SDS011;20063;51.730;11.110;2022-08-02T04:30:31;5.75;;;2.33;;
33738;SDS011;20063;51.730;11.110;2022-08-02T04:32:57;2.03;;;1.75;;
33738;SDS011;20063;51.730;11.110;2022-08-02T04:38:16;5.00;;;2.35;;
33738;SDS011;20063;51.730;11.110;2022-08-02T04:40:51;5.60;;;2.08;;
33738;SDS011;20063;51.730;11.110;2022-08-02T04:43:32;9.40;;;2.70;;
33738;SDS011;20063;51.730;11.110;2022-08-02T04:45:58;5.05;;;2.40;;
33738;SDS011;20063;51.730;11.110;2022-08-02T04:48:38;8.43;;;2.08;;
33738;SDS011;20063;51.730;11.110;2022-08-02T04:51:11;5.78;;;2.20;;
33738;SDS011;20063;51.730;11.110;2022-08-02T04:53:37;11.43;;;2.20;;
33738;SDS011;20063;51.730;11.110;2022-08-02T04:56:03;6.80;;;2.45;;
33738;SDS011;20063;51.730;11.110;2022-08-02T04:58:29;7.72;;;2.20;;
33738;SDS011;20063;51.730;11.110;2022-08-02T05:01:00;5.60;;;2.17;;
33738;SDS011;20063;51.730;11.110;2022-08-02T05:03:26;5.47;;;1.90;;
33738;SDS011;20063;51.730;11.110;2022-08-02T05:06:10;7.97;;;2.30;;
33738;SDS011;20063;51.730;11.110;2022-08-02T05:08:36;4.97;;;2.15;;
33738;SDS011;20063;51.730;11.110;2022-08-02T05:17:26;7.53;;;2.20;;
33738;SDS011;20063;51.730;11.110;2022-08-02T05:22:53;6.63;;;1.98;;
33738;SDS011;20063;51.730;11.110;2022-08-02T05:25:18;5.13;;;1.92;;
33738;SDS011;20063;51.730;11.110;2022-08-02T05:31:06;5.57;;;1.92;;
33738;SDS011;20063;51.730;11.110;2022-08-02T05:33:33;12.00;;;2.42;;
33738;SDS011;20063;51.730;11.110;2022-08-02T05:35:59;5.55;;;2.10;;
33738;SDS011;20063;51.730;11.110;2022-08-02T05:38:24;4.93;;;1.85;;
33738;SDS011;20063;51.730;11.110;2022-08-02T05:40:55;3.28;;;1.85;;
33738;SDS011;20063;51.730;11.110;2022-08-02T05:43:20;8.75;;;2.38;;
33738;SDS011;20063;51.730;11.110;2022-08-02T05:45:51;7.85;;;2.33;;
33738;SDS011;20063;51.730;11.110;2022-08-02T05:48:17;10.45;;;2.30;;
33738;SDS011;20063;51.730;11.110;2022-08-02T05:50:44;5.93;;;1.90;;
33738;SDS011;20063;51.730;11.110;2022-08-02T05:56:49;4.60;;;2.22;;
33738;SDS011;20063;51.730;11.110;2022-08-02T05:58:53;7.47;;;2.40;;
33738;SDS011;20063;51.730;11.110;2022-08-02T06:04:32;13.68;;;3.30;;
33738;SDS011;20063;51.730;11.110;2022-08-02T06:07:05;7.75;;;2.70;;
33738;SDS011;20063;51.730;11.110;2022-08-02T06:15:53;10.25;;;3.03;;
33738;SDS011;20063;51.730;11.110;2022-08-02T06:18:30;12.43;;;3.05;;
33738;SDS011;20063;51.730;11.110;2022-08-02T06:21:02;7.97;;;2.40;;
33738;SDS011;20063;51.730;11.110;2022-08-02T06:23:29;6.28;;;2.55;;
33738;SDS011;20063;51.730;11.110;2022-08-02T06:25:56;7.65;;;2.15;;
33738;SDS011;20063;51.730;11.110;2022-08-02T06:28:31;10.85;;;2.85;;
33738;SDS011;20063;51.730;11.110;2022-08-02T06:30:59;6.72;;;2.47;;
33738;SDS011;20063;51.730;11.110;2022-08-02T06:33:25;11.23;;;3.55;;
33738;SDS011;20063;51.730;11.110;2022-08-02T06:39:02;10.38;;;2.55;;
33738;SDS011;20063;51.730;11.110;2022-08-02T06:42:11;13.43;;;3.25;;
33738;SDS011;20063;51.730;11.110;2022-08-02T06:44:39;9.80;;;2.00;;
33738;SDS011;20063;51.730;11.110;2022-08-02T06:47:12;12.25;;;2.58;;
33738;SDS011;20063;51.730;11.110;2022-08-02T06:49:38;8.63;;;2.70;;
33738;SDS011;20063;51.730;11.110;2022-08-02T06:52:05;15.75;;;3.08;;
33738;SDS011;20063;51.730;11.110;2022-08-02T06:54:30;21.25;;;3.80;;
33738;SDS011;20063;51.730;11.110;2022-08-02T06:56:56;9.23;;;2.58;;
33738;SDS011;20063;51.730;11.110;2022-08-02T07:02:19;15.43;;;2.65;;
33738;SDS011;20063;51.730;11.110;2022-08-02T07:04:45;13.73;;;2.88;;
33738;SDS011;20063;51.730;11.110;2022-08-02T07:07:21;14.40;;;2.65;;
33738;SDS011;20063;51.730;11.110;2022-08-02T07:09:46;19.23;;;2.65;;
33738;SDS011;20063;51.730;11.110;2022-08-02T07:12:13;15.85;;;2.17;;
33738;SDS011;20063;51.730;11.110;2022-08-02T07:17:07;9.38;;;2.38;;
33738;SDS011;20063;51.730;11.110;2022-08-02T07:22:01;12.30;;;2.33;;
33738;SDS011;20063;51.730;11.110;2022-08-02T07:24:27;13.75;;;2.45;;
33738;SDS011;20063;51.730;11.110;2022-08-02T07:29:51;12.73;;;2.53;;
33738;SDS011;20063;51.730;11.110;2022-08-02T07:32:31;10.88;;;2.53;;
33738;SDS011;20063;51.730;11.110;2022-08-02T07:34:57;11.80;;;3.28;;
33738;SDS011;20063;51.730;11.110;2022-08-02T07:40:42;15.63;;;2.22;;
33738;SDS011;20063;51.730;11.110;2022-08-02T07:43:07;9.43;;;2.45;;
33738;SDS011;20063;51.730;11.110;2022-08-02T07:45:49;9.77;;;2.72;;
33738;SDS011;20063;51.730;11.110;2022-08-02T07:48:14;8.23;;;2.65;;
33738;SDS011;20063;51.730;11.110;2022-08-02T07:50:46;13.77;;;2.78;;
33738;SDS011;20063;51.730;11.110;2022-08-02T07:56:13;11.45;;;3.00;;
33738;SDS011;20063;51.730;11.110;2022-08-02T07:58:42;7.57;;;2.30;;
33738;SDS011;20063;51.730;11.110;2022-08-02T08:01:13;8.70;;;2.67;;
33738;SDS011;20063;51.730;11.110;2022-08-02T08:03:38;13.70;;;2.47;;
33738;SDS011;20063;51.730;11.110;2022-08-02T08:08:56;7.47;;;2.97;;
33738;SDS011;20063;51.730;11.110;2022-08-02T08:18:06;9.57;;;2.38;;
33738;SDS011;20063;51.730;11.110;2022-08-02T08:20:33;11.32;;;2.45;;
33738;SDS011;20063;51.730;11.110;2022-08-02T08:22:59;8.73;;;2.63;;
33738;SDS011;20063;51.730;11.110;2022-08-02T08:25:40;9.95;;;2.33;;
33738;SDS011;20063;51.730;11.110;2022-08-02T08:28:06;7.20;;;3.03;;
33738;SDS011;20063;51.730;11.110;2022-08-02T08:30:33;14.75;;;2.50;;
33738;SDS011;20063;51.730;11.110;2022-08-02T08:32:59;8.55;;;2.60;;
33738;SDS011;20063;51.730;11.110;2022-08-02T08:35:26;12.90;;;2.72;;
33738;SDS011;20063;51.730;11.110;2022-08-02T08:37:52;10.60;;;2.00;;
33738;SDS011;20063;51.730;11.110;2022-08-02T08:40:17;9.35;;;2.83;;
33738;SDS011;20063;51.730;11.110;2022-08-02T08:45:28;5.22;;;2.15;;
33738;SDS011;20063;51.730;11.110;2022-08-02T08:47:55;7.45;;;2.15;;
33738;SDS011;20063;51.730;11.110;2022-08-02T08:50:26;7.68;;;2.63;;
33738;SDS011;20063;51.730;11.110;2022-08-02T08:55:55;4.20;;;1.70;;
33738;SDS011;20063;51.730;11.110;2022-08-02T08:58:34;4.80;;;1.80;;
33738;SDS011;20063;51.730;11.110;2022-08-02T09:01:02;3.83;;;1.77;;
33738;SDS011;20063;51.730;11.110;2022-08-02T09:03:30;9.60;;;2.10;;
33738;SDS011;20063;51.730;11.110;2022-08-02T09:05:56;6.00;;;1.98;;
33738;SDS011;20063;51.730;11.110;2022-08-02T09:08:25;6.78;;;2.33;;
33738;SDS011;20063;51.730;11.110;2022-08-02T09:10:51;9.27;;;1.95;;
33738;SDS011;20063;51.730;11.110;2022-08-02T09:13:25;6.57;;;1.67;;
33738;SDS011;20063;51.730;11.110;2022-08-02T09:15:57;3.15;;;1.67;;
33738;SDS011;20063;51.730;11.110;2022-08-02T09:18:34;7.63;;;1.85;;
33738;SDS011;20063;51.730;11.110;2022-08-02T09:21:03;5.43;;;2.20;;
33738;SDS011;20063;51.730;11.110;2022-08-02T09:23:34;6.20;;;1.85;;
33738;SDS011;20063;51.730;11.110;2022-08-02T09:26:05;9.02;;;1.75;;
33738;SDS011;20063;51.730;11.110;2022-08-02T09:28:48;8.65;;;2.42;;
33738;SDS011;20063;51.730;11.110;2022-08-02T09:31:16;8.80;;;2.03;;
33738;SDS011;20063;51.730;11.110;2022-08-02T09:33:44;6.22;;;2.17;;
33738;SDS011;20063;51.730;11.110;2022-08-02T09:36:14;8.35;;;2.35;;
33738;SDS011;20063;51.730;11.110;2022-08-02T09:38:59;7.38;;;2.33;;
33738;SDS011;20063;51.730;11.110;2022-08-02T09:41:28;10.40;;;2.88;;
33738;SDS011;20063;51.730;11.110;2022-08-02T09:43:56;7.50;;;2.15;;
33738;SDS011;20063;51.730;11.110;2022-08-02T09:46:27;8.50;;;1.85;;
33738;SDS011;20063;51.730;11.110;2022-08-02T09:49:01;7.20;;;2.42;;
33738;SDS011;20063;51.730;11.110;2022-08-02T09:51:30;5.43;;;2.42;;
33738;SDS011;20063;51.730;11.110;2022-08-02T09:53:59;3.92;;;1.92;;
33738;SDS011;20063;51.730;11.110;2022-08-02T09:56:37;7.70;;;2.00;;
33738;SDS011;20063;51.730;11.110;2022-08-02T09:59:23;9.13;;;2.20;;
33738;SDS011;20063;51.730;11.110;2022-08-02T10:01:51;6.75;;;2.10;;
33738;SDS011;20063;51.730;11.110;2022-08-02T10:04:22;5.63;;;1.83;;
33738;SDS011;20063;51.730;11.110;2022-08-02T10:06:50;12.70;;;2.53;;
33738;SDS011;20063;51.730;11.110;2022-08-02T10:09:16;8.75;;;2.47;;
33738;SDS011;20063;51.730;11.110;2022-08-02T10:11:58;3.90;;;1.80;;
33738;SDS011;20063;51.730;11.110;2022-08-02T10:14:32;9.20;;;2.33;;
33738;SDS011;20063;51.730;11.110;2022-08-02T10:16:59;2.15;;;1.52;;
33738;SDS011;20063;51.730;11.110;2022-08-02T10:19:24;4.72;;;1.70;;
33738;SDS011;20063;51.730;11.110;2022-08-02T10:24:45;6.45;;;2.00;;
33738;SDS011;20063;51.730;11.110;2022-08-02T10:29:56;11.50;;;2.70;;
33738;SDS011;20063;51.730;11.110;2022-08-02T10:32:36;5.82;;;2.05;;
33738;SDS011;20063;51.730;11.110;2022-08-02T10:38:09;5.82;;;1.90;;
33738;SDS011;20063;51.730;11.110;2022-08-02T10:40:49;5.70;;;1.33;;
33738;SDS011;20063;51.730;11.110;2022-08-02T10:54:27;4.20;;;1.80;;
33738;SDS011;20063;51.730;11.110;2022-08-02T10:57:13;5.55;;;1.80;;
33738;SDS011;20063;51.730;11.110;2022-08-02T11:00:12;4.30;;;1.75;;
33738;SDS011;20063;51.730;11.110;2022-08-02T11:02:47;8.43;;;1.85;;
33738;SDS011;20063;51.730;11.110;2022-08-02T11:05:26;2.85;;;1.65;;
33738;SDS011;20063;51.730;11.110;2022-08-02T11:07:56;5.63;;;1.67;;
33738;SDS011;20063;51.730;11.110;2022-08-02T11:15:22;5.95;;;1.40;;
33738;SDS011;20063;51.730;11.110;2022-08-02T11:17:56;3.15;;;1.55;;
33738;SDS011;20063;51.730;11.110;2022-08-02T11:20:25;5.63;;;1.75;;
33738;SDS011;20063;51.730;11.110;2022-08-02T11:22:52;6.88;;;2.20;;
33738;SDS011;20063;51.730;11.110;2022-08-02T11:27:54;4.40;;;1.77;;
33738;SDS011;20063;51.730;11.110;2022-08-02T11:30:21;5.20;;;1.83;;
33738;SDS011;20063;51.730;11.110;2022-08-02T11:32:47;8.32;;;2.20;;
33738;SDS011;20063;51.730;11.110;2022-08-02T11:35:13;4.22;;;1.90;;
33738;SDS011;20063;51.730;11.110;2022-08-02T11:37:40;4.13;;;1.40;;
33738;SDS011;20063;51.730;11.110;2022-08-02T11:40:09;5.22;;;1.85;;
33738;SDS011;20063;51.730;11.110;2022-08-02T11:45:25;8.05;;;1.63;;
33738;SDS011;20063;51.730;11.110;2022-08-02T11:47:55;4.13;;;1.25;;
33738;SDS011;20063;51.730;11.110;2022-08-02T11:50:21;4.45;;;1.75;;
33738;SDS011;20063;51.730;11.110;2022-08-02T11:52:50;5.13;;;1.30;;
33738;SDS011;20063;51.730;11.110;2022-08-02T11:55:25;4.30;;;1.60;;
33738;SDS011;20063;51.730;11.110;2022-08-02T11:57:59;9.30;;;1.73;;
33738;SDS011;20063;51.730;11.110;2022-08-02T12:00:25;5.70;;;1.60;;
33738;SDS011;20063;51.730;11.110;2022-08-02T12:05:47;3.25;;;1.27;;
33738;SDS011;20063;51.730;11.110;2022-08-02T12:08:21;2.10;;;1.20;;
33738;SDS011;20063;51.730;11.110;2022-08-02T12:10:49;5.30;;;1.60;;
33738;SDS011;20063;51.730;11.110;2022-08-02T12:13:15;10.93;;;1.85;;
33738;SDS011;20063;51.730;11.110;2022-08-02T12:15:42;3.20;;;1.50;;
33738;SDS011;20063;51.730;11.110;2022-08-02T12:18:10;4.55;;;1.45;;
33738;SDS011;20063;51.730;11.110;2022-08-02T12:20:57;5.45;;;1.90;;
33738;SDS011;20063;51.730;11.110;2022-08-02T12:23:23;7.78;;;1.70;;
33738;SDS011;20063;51.730;11.110;2022-08-02T12:28:37;6.70;;;1.40;;
33738;SDS011;20063;51.730;11.110;2022-08-02T12:31:04;9.18;;;1.80;;
33738;SDS011;20063;51.730;11.110;2022-08-02T12:33:45;4.15;;;1.45;;
33738;SDS011;20063;51.730;11.110;2022-08-02T12:36:19;5.38;;;2.30;;
33738;SDS011;20063;51.730;11.110;2022-08-02T12:38:52;6.00;;;1.65;;
33738;SDS011;20063;51.730;11.110;2022-08-02T12:44:20;3.70;;;1.63;;
33738;SDS011;20063;51.730;11.110;2022-08-02T12:49:34;3.25;;;1.15;;
33738;SDS011;20063;51.730;11.110;2022-08-02T12:51:59;2.38;;;1.30;;
33738;SDS011;20063;51.730;11.110;2022-08-02T12:54:29;4.30;;;1.35;;
33738;SDS011;20063;51.730;11.110;2022-08-02T12:57:10;4.47;;;1.27;;
33738;SDS011;20063;51.730;11.110;2022-08-02T13:00:11;3.75;;;1.38;;
33738;SDS011;20063;51.730;11.110;2022-08-02T13:02:30;3.97;;;1.20;;
33738;SDS011;20063;51.730;11.110;2022-08-02T13:04:58;2.22;;;1.13;;
33738;SDS011;20063;51.730;11.110;2022-08-02T13:07:23;4.85;;;1.27;;
33738;SDS011;20063;51.730;11.110;2022-08-02T13:09:49;4.22;;;1.67;;
33738;SDS011;20063;51.730;11.110;2022-08-02T13:12:22;5.25;;;1.60;;
33738;SDS011;20063;51.730;11.110;2022-08-02T13:14:48;3.53;;;1.75;;
33738;SDS011;20063;51.730;11.110;2022-08-02T13:17:13;3.40;;;1.33;;
33738;SDS011;20063;51.730;11.110;2022-08-02T13:19:39;4.45;;;1.73;;
33738;SDS011;20063;51.730;11.110;2022-08-02T13:24:52;6.40;;;1.30;;
33738;SDS011;20063;51.730;11.110;2022-08-02T13:27:19;2.83;;;1.65;;
33738;SDS011;20063;51.730;11.110;2022-08-02T13:29:44;4.75;;;1.42;;
33738;SDS011;20063;51.730;11.110;2022-08-02T13:32:12;3.47;;;1.30;;
33738;SDS011;20063;51.730;11.110;2022-08-02T13:34:38;5.68;;;1.35;;
33738;SDS011;20063;51.730;11.110;2022-08-02T13:37:04;5.80;;;1.50;;
33738;SDS011;20063;51.730;11.110;2022-08-02T13:39:42;1.88;;;1.40;;
33738;SDS011;20063;51.730;11.110;2022-08-02T13:42:07;1.58;;;1.05;;
33738;SDS011;20063;51.730;11.110;2022-08-02T13:44:45;4.00;;;1.83;;
33738;SDS011;20063;51.730;11.110;2022-08-02T13:47:11;1.60;;;1.05;;
33738;SDS011;20063;51.730;11.110;2022-08-02T13:49:43;7.65;;;1.45;;
33738;SDS011;20063;51.730;11.110;2022-08-02T13:52:09;6.90;;;1.40;;
33738;SDS011;20063;51.730;11.110;2022-08-02T13:54:35;2.53;;;1.40;;
33738;SDS011;20063;51.730;11.110;2022-08-02T13:57:01;5.68;;;1.30;;
33738;SDS011;20063;51.730;11.110;2022-08-02T13:59:27;4.65;;;1.83;;
33738;SDS011;20063;51.730;11.110;2022-08-02T14:01:53;12.55;;;1.55;;
33738;SDS011;20063;51.730;11.110;2022-08-02T14:04:20;2.97;;;1.17;;
33738;SDS011;20063;51.730;11.110;2022-08-02T14:06:46;6.85;;;1.05;;
33738;SDS011;20063;51.730;11.110;2022-08-02T14:09:11;6.13;;;1.50;;
33738;SDS011;20063;51.730;11.110;2022-08-02T14:11:37;8.50;;;2.00;;
33738;SDS011;20063;51.730;11.110;2022-08-02T14:14:06;2.38;;;1.30;;
33738;SDS011;20063;51.730;11.110;2022-08-02T14:16:32;3.63;;;1.65;;
33738;SDS011;20063;51.730;11.110;2022-08-02T14:19:01;4.45;;;1.38;;
33738;SDS011;20063;51.730;11.110;2022-08-02T14:21:27;1.10;;;1.00;;
33738;SDS011;20063;51.730;11.110;2022-08-02T14:23:52;1.33;;;0.93;;
33738;SDS011;20063;51.730;11.110;2022-08-02T14:26:18;2.30;;;1.20;;
33738;SDS011;20063;51.730;11.110;2022-08-02T14:28:52;3.00;;;1.50;;
33738;SDS011;20063;51.730;11.110;2022-08-02T14:31:17;9.48;;;1.45;;
33738;SDS011;20063;51.730;11.110;2022-08-02T14:33:43;4.40;;;1.08;;
33738;SDS011;20063;51.730;11.110;2022-08-02T14:36:09;2.58;;;1.38;;
33738;SDS011;20063;51.730;11.110;2022-08-02T14:38:34;11.65;;;1.95;;
33738;SDS011;20063;51.730;11.110;2022-08-02T14:41:18;6.15;;;1.10;;
33738;SDS011;20063;51.730;11.110;2022-08-02T14:43:44;3.80;;;1.17;;
33738;SDS011;20063;51.730;11.110;2022-08-02T14:46:31;2.20;;;0.90;;
33738;SDS011;20063;51.730;11.110;2022-08-02T14:48:58;3.22;;;0.98;;
33738;SDS011;20063;51.730;11.110;2022-08-02T14:51:34;2.38;;;0.98;;
33738;SDS011;20063;51.730;11.110;2022-08-02T14:54:02;2.60;;;1.25;;
33738;SDS011;20063;51.730;11.110;2022-08-02T14:56:29;3.58;;;1.67;;
33738;SDS011;20063;51.730;11.110;2022-08-02T14:58:55;2.20;;;1.13;;
33738;SDS011;20063;51.730;11.110;2022-08-02T15:01:21;5.30;;;1.10;;
33738;SDS011;20063;51.730;11.110;2022-08-02T15:03:47;1.25;;;1.02;;
33738;SDS011;20063;51.730;11.110;2022-08-02T15:06:14;1.63;;;1.17;;
33738;SDS011;20063;51.730;11.110;2022-08-02T15:08:43;1.13;;;0.95;;
33738;SDS011;20063;51.730;11.110;2022-08-02T15:11:08;2.20;;;1.10;;
33738;SDS011;20063;51.730;11.110;2022-08-02T15:13:34;3.15;;;0.90;;
33738;SDS011;20063;51.730;11.110;2022-08-02T15:15:59;1.30;;;0.80;;
33738;SDS011;20063;51.730;11.110;2022-08-02T15:18:30;1.60;;;1.05;;
33738;SDS011;20063;51.730;11.110;2022-08-02T15:20:59;1.45;;;1.10;;
33738;SDS011;20063;51.730;11.110;2022-08-02T15:23:28;2.40;;;1.20;;
33738;SDS011;20063;51.730;11.110;2022-08-02T15:25:55;1.20;;;1.00;;
33738;SDS011;20063;51.730;11.110;2022-08-02T15:28:21;8.13;;;1.30;;
33738;SDS011;20063;51.730;11.110;2022-08-02T15:30:46;4.47;;;1.05;;
33738;SDS011;20063;51.730;11.110;2022-08-02T15:33:12;4.25;;;1.35;;
33738;SDS011;20063;51.730;11.110;2022-08-02T15:35:39;1.13;;;1.02;;
33738;SDS011;20063;51.730;11.110;2022-08-02T15:38:04;3.15;;;1.60;;
33738;SDS011;20063;51.730;11.110;2022-08-02T15:40:47;3.80;;;1.10;;
33738;SDS011;20063;51.730;11.110;2022-08-02T15:43:12;2.13;;;1.10;;
33738;SDS011;20063;51.730;11.110;2022-08-02T15:45:39;3.35;;;1.38;;
33738;SDS011;20063;51.730;11.110;2022-08-02T15:48:08;3.22;;;0.80;;
33738;SDS011;20063;51.730;11.110;2022-08-02T15:50:38;7.05;;;2.22;;
33738;SDS011;20063;51.730;11.110;2022-08-02T15:53:04;2.35;;;0.93;;
33738;SDS011;20063;51.730;11.110;2022-08-02T15:55:30;1.55;;;0.88;;
33738;SDS011;20063;51.730;11.110;2022-08-02T15:57:56;2.60;;;0.90;;
33738;SDS011;20063;51.730;11.110;2022-08-02T16:00:22;3.22;;;1.35;;
33738;SDS011;20063;51.730;11.110;2022-08-02T16:02:56;4.40;;;1.30;;
33738;SDS011;20063;51.730;11.110;2022-08-02T16:05:22;1.55;;;1.10;;
33738;SDS011;20063;51.730;11.110;2022-08-02T16:07:48;8.95;;;1.02;;
33738;SDS011;20063;51.730;11.110;2022-08-02T16:10:16;0.82;;;0.82;;
33738;SDS011;20063;51.730;11.110;2022-08-02T16:12:49;0.80;;;0.80;;
33738;SDS011;20063;51.730;11.110;2022-08-02T16:15:15;1.63;;;0.98;;
33738;SDS011;20063;51.730;11.110;2022-08-02T16:17:40;2.13;;;0.77;;
33738;SDS011;20063;51.730;11.110;2022-08-02T16:22:41;1.73;;;0.80;;
33738;SDS011;20063;51.730;11.110;2022-08-02T16:25:19;1.55;;;1.10;;
33738;SDS011;20063;51.730;11.110;2022-08-02T16:27:44;1.98;;;0.90;;
33738;SDS011;20063;51.730;11.110;2022-08-02T16:30:10;2.45;;;1.15;;
33738;SDS011;20063;51.730;11.110;2022-08-02T16:32:36;1.33;;;0.90;;
33738;SDS011;20063;51.730;11.110;2022-08-02T16:37:32;3.38;;;0.95;;
33738;SDS011;20063;51.730;11.110;2022-08-02T16:42:43;4.75;;;1.00;;
33738;SDS011;20063;51.730;11.110;2022-08-02T16:45:15;2.08;;;1.00;;
33738;SDS011;20063;51.730;11.110;2022-08-02T16:47:40;4.85;;;0.88;;
33738;SDS011;20063;51.730;11.110;2022-08-02T16:50:06;0.85;;;0.85;;
33738;SDS011;20063;51.730;11.110;2022-08-02T16:55:29;2.20;;;1.00;;
33738;SDS011;20063;51.730;11.110;2022-08-02T16:58:10;5.22;;;1.33;;
33738;SDS011;20063;51.730;11.110;2022-08-02T17:00:36;0.93;;;0.90;;
33738;SDS011;20063;51.730;11.110;2022-08-02T17:03:02;1.40;;;0.90;;
33738;SDS011;20063;51.730;11.110;2022-08-02T17:05:37;1.95;;;1.05;;
33738;SDS011;20063;51.730;11.110;2022-08-02T17:08:04;0.70;;;0.70;;
33738;SDS011;20063;51.730;11.110;2022-08-02T17:10:33;2.35;;;1.02;;
33738;SDS011;20063;51.730;11.110;2022-08-02T17:13:04;2.95;;;0.80;;
33738;SDS011;20063;51.730;11.110;2022-08-02T17:15:31;1.85;;;0.77;;
33738;SDS011;20063;51.730;11.110;2022-08-02T17:18:01;0.80;;;0.80;;
